sensor_id;sensor_type;location;lat;lon;timestamp;P1;durP1;ratioP1;P2;durP2;ratioP2
54307;SDS011;40208;39.778;2.710;2022-07-23T00:00:58;7.13;;;3.55;;
54307;SDS011;40208;39.778;2.710;2022-07-23T00:03:44;5.32;;;3.50;;
54307;SDS011;40208;39.778;2.710;2022-07-23T00:06:29;7.38;;;3.50;;
54307;SDS011;40208;39.778;2.710;2022-07-23T00:09:13;7.78;;;3.20;;
54307;SDS011;40208;39.778;2.710;2022-07-23T00:11:58;8.20;;;3.75;;
54307;SDS011;40208;39.778;2.710;2022-07-23T00:14:43;6.55;;;3.20;;
54307;SDS011;40208;39.778;2.710;2022-07-23T00:17:28;6.07;;;3.00;;
54307;SDS011;40208;39.778;2.710;2022-07-23T00:20:13;4.53;;;2.95;;
54307;SDS011;40208;39.778;2.710;2022-07-23T00:22:58;7.03;;;3.22;;
54307;SDS011;40208;39.778;2.710;2022-07-23T00:25:43;11.02;;;3.70;;
54307;SDS011;40208;39.778;2.710;2022-07-23T00:28:29;5.63;;;3.38;;
54307;SDS011;40208;39.778;2.710;2022-07-23T00:31:14;8.40;;;3.35;;
54307;SDS011;40208;39.778;2.710;2022-07-23T00:33:58;7.75;;;3.30;;
54307;SDS011;40208;39.778;2.710;2022-07-23T00:36:45;4.40;;;3.42;;
54307;SDS011;40208;39.778;2.710;2022-07-23T00:39:30;4.65;;;3.53;;
54307;SDS011;40208;39.778;2.710;2022-07-23T00:42:15;7.07;;;3.47;;
54307;SDS011;40208;39.778;2.710;2022-07-23T00:45:00;5.80;;;4.10;;
54307;SDS011;40208;39.778;2.710;2022-07-23T00:47:45;8.23;;;3.80;;
54307;SDS011;40208;39.778;2.710;2022-07-23T00:50:30;5.80;;;3.67;;
54307;SDS011;40208;39.778;2.710;2022-07-23T00:53:14;8.32;;;3.83;;
54307;SDS011;40208;39.778;2.710;2022-07-23T00:56:00;6.97;;;4.20;;
54307;SDS011;40208;39.778;2.710;2022-07-23T00:58:44;7.18;;;3.80;;
54307;SDS011;40208;39.778;2.710;2022-07-23T01:01:30;14.43;;;4.53;;
54307;SDS011;40208;39.778;2.710;2022-07-23T01:04:15;9.00;;;3.55;;
54307;SDS011;40208;39.778;2.710;2022-07-23T01:07:00;10.43;;;4.05;;
54307;SDS011;40208;39.778;2.710;2022-07-23T01:09:45;8.60;;;4.65;;
54307;SDS011;40208;39.778;2.710;2022-07-23T01:12:30;7.47;;;3.65;;
54307;SDS011;40208;39.778;2.710;2022-07-23T01:15:15;6.38;;;4.20;;
54307;SDS011;40208;39.778;2.710;2022-07-23T01:18:00;6.57;;;4.22;;
54307;SDS011;40208;39.778;2.710;2022-07-23T01:20:45;8.95;;;3.83;;
54307;SDS011;40208;39.778;2.710;2022-07-23T01:23:30;6.00;;;3.53;;
54307;SDS011;40208;39.778;2.710;2022-07-23T01:26:15;7.30;;;4.10;;
54307;SDS011;40208;39.778;2.710;2022-07-23T01:29:01;6.50;;;4.25;;
54307;SDS011;40208;39.778;2.710;2022-07-23T01:31:46;5.85;;;3.90;;
54307;SDS011;40208;39.778;2.710;2022-07-23T01:34:31;10.90;;;3.95;;
54307;SDS011;40208;39.778;2.710;2022-07-23T01:37:15;5.85;;;3.97;;
54307;SDS011;40208;39.778;2.710;2022-07-23T01:40:00;14.48;;;4.45;;
54307;SDS011;40208;39.778;2.710;2022-07-23T01:42:45;16.77;;;4.15;;
54307;SDS011;40208;39.778;2.710;2022-07-23T01:45:30;9.07;;;4.15;;
54307;SDS011;40208;39.778;2.710;2022-07-23T01:48:15;5.68;;;3.83;;
54307;SDS011;40208;39.778;2.710;2022-07-23T01:51:01;7.53;;;3.95;;
54307;SDS011;40208;39.778;2.710;2022-07-23T01:53:46;13.85;;;4.20;;
54307;SDS011;40208;39.778;2.710;2022-07-23T01:56:31;7.65;;;4.22;;
54307;SDS011;40208;39.778;2.710;2022-07-23T01:59:16;5.47;;;3.85;;
54307;SDS011;40208;39.778;2.710;2022-07-23T02:02:01;8.82;;;4.38;;
54307;SDS011;40208;39.778;2.710;2022-07-23T02:04:48;4.80;;;3.97;;
54307;SDS011;40208;39.778;2.710;2022-07-23T02:07:33;5.00;;;3.90;;
54307;SDS011;40208;39.778;2.710;2022-07-23T02:10:18;4.85;;;3.80;;
54307;SDS011;40208;39.778;2.710;2022-07-23T02:13:02;7.03;;;4.10;;
54307;SDS011;40208;39.778;2.710;2022-07-23T02:15:47;5.82;;;4.10;;
54307;SDS011;40208;39.778;2.710;2022-07-23T02:18:32;6.97;;;4.53;;
54307;SDS011;40208;39.778;2.710;2022-07-23T02:21:17;5.05;;;3.67;;
54307;SDS011;40208;39.778;2.710;2022-07-23T02:24:02;8.27;;;4.75;;
54307;SDS011;40208;39.778;2.710;2022-07-23T02:26:47;11.55;;;4.60;;
54307;SDS011;40208;39.778;2.710;2022-07-23T02:29:32;5.60;;;4.22;;
54307;SDS011;40208;39.778;2.710;2022-07-23T02:32:17;9.98;;;4.60;;
54307;SDS011;40208;39.778;2.710;2022-07-23T02:35:02;6.43;;;4.25;;
54307;SDS011;40208;39.778;2.710;2022-07-23T02:37:48;7.43;;;4.32;;
54307;SDS011;40208;39.778;2.710;2022-07-23T02:40:33;4.82;;;4.13;;
54307;SDS011;40208;39.778;2.710;2022-07-23T02:43:18;6.93;;;4.15;;
54307;SDS011;40208;39.778;2.710;2022-07-23T02:46:03;9.07;;;4.32;;
54307;SDS011;40208;39.778;2.710;2022-07-23T02:48:48;5.75;;;4.35;;
54307;SDS011;40208;39.778;2.710;2022-07-23T02:51:33;9.65;;;4.70;;
54307;SDS011;40208;39.778;2.710;2022-07-23T02:54:17;9.25;;;4.70;;
54307;SDS011;40208;39.778;2.710;2022-07-23T02:57:03;6.30;;;4.35;;
54307;SDS011;40208;39.778;2.710;2022-07-23T02:59:48;9.07;;;4.68;;
54307;SDS011;40208;39.778;2.710;2022-07-23T03:02:33;6.40;;;4.40;;
54307;SDS011;40208;39.778;2.710;2022-07-23T03:05:18;6.53;;;3.95;;
54307;SDS011;40208;39.778;2.710;2022-07-23T03:08:03;6.65;;;4.07;;
54307;SDS011;40208;39.778;2.710;2022-07-23T03:10:48;7.38;;;4.40;;
54307;SDS011;40208;39.778;2.710;2022-07-23T03:13:32;6.82;;;4.18;;
54307;SDS011;40208;39.778;2.710;2022-07-23T03:16:17;11.68;;;4.95;;
54307;SDS011;40208;39.778;2.710;2022-07-23T03:19:02;7.22;;;4.43;;
54307;SDS011;40208;39.778;2.710;2022-07-23T03:21:47;10.52;;;4.03;;
54307;SDS011;40208;39.778;2.710;2022-07-23T03:24:32;8.32;;;3.92;;
54307;SDS011;40208;39.778;2.710;2022-07-23T03:27:35;11.07;;;4.80;;
54307;SDS011;40208;39.778;2.710;2022-07-23T03:30:20;7.03;;;4.50;;
54307;SDS011;40208;39.778;2.710;2022-07-23T03:33:04;5.32;;;4.07;;
54307;SDS011;40208;39.778;2.710;2022-07-23T03:35:49;9.95;;;4.00;;
54307;SDS011;40208;39.778;2.710;2022-07-23T03:38:35;8.32;;;4.60;;
54307;SDS011;40208;39.778;2.710;2022-07-23T03:41:20;5.60;;;3.95;;
54307;SDS011;40208;39.778;2.710;2022-07-23T03:44:05;8.27;;;4.15;;
54307;SDS011;40208;39.778;2.710;2022-07-23T03:46:49;8.32;;;3.90;;
54307;SDS011;40208;39.778;2.710;2022-07-23T03:49:34;8.90;;;4.20;;
54307;SDS011;40208;39.778;2.710;2022-07-23T03:52:19;7.88;;;4.80;;
54307;SDS011;40208;39.778;2.710;2022-07-23T03:55:04;5.40;;;4.20;;
54307;SDS011;40208;39.778;2.710;2022-07-23T03:57:49;4.43;;;3.88;;
54307;SDS011;40208;39.778;2.710;2022-07-23T04:00:34;6.40;;;3.58;;
54307;SDS011;40208;39.778;2.710;2022-07-23T04:03:19;10.35;;;4.20;;
54307;SDS011;40208;39.778;2.710;2022-07-23T04:06:03;8.70;;;3.95;;
54307;SDS011;40208;39.778;2.710;2022-07-23T04:08:48;10.52;;;4.50;;
54307;SDS011;40208;39.778;2.710;2022-07-23T04:11:33;6.40;;;4.28;;
54307;SDS011;40208;39.778;2.710;2022-07-23T04:14:18;7.72;;;4.18;;
54307;SDS011;40208;39.778;2.710;2022-07-23T04:17:03;6.68;;;4.03;;
54307;SDS011;40208;39.778;2.710;2022-07-23T04:19:48;5.88;;;4.38;;
54307;SDS011;40208;39.778;2.710;2022-07-23T04:22:32;6.72;;;3.97;;
54307;SDS011;40208;39.778;2.710;2022-07-23T04:25:17;10.73;;;4.82;;
54307;SDS011;40208;39.778;2.710;2022-07-23T04:28:02;7.40;;;3.88;;
54307;SDS011;40208;39.778;2.710;2022-07-23T04:30:47;6.90;;;4.45;;
54307;SDS011;40208;39.778;2.710;2022-07-23T04:33:32;8.30;;;3.78;;
54307;SDS011;40208;39.778;2.710;2022-07-23T04:36:17;7.80;;;3.78;;
54307;SDS011;40208;39.778;2.710;2022-07-23T04:39:02;9.18;;;4.63;;
54307;SDS011;40208;39.778;2.710;2022-07-23T04:41:47;4.97;;;3.80;;
54307;SDS011;40208;39.778;2.710;2022-07-23T04:44:31;9.38;;;4.80;;
54307;SDS011;40208;39.778;2.710;2022-07-23T04:47:16;8.35;;;4.38;;
54307;SDS011;40208;39.778;2.710;2022-07-23T04:50:01;24.38;;;4.45;;
54307;SDS011;40208;39.778;2.710;2022-07-23T04:52:47;8.68;;;4.13;;
54307;SDS011;40208;39.778;2.710;2022-07-23T04:55:32;7.28;;;3.92;;
54307;SDS011;40208;39.778;2.710;2022-07-23T04:58:17;9.30;;;3.80;;
54307;SDS011;40208;39.778;2.710;2022-07-23T05:01:02;11.45;;;3.80;;
54307;SDS011;40208;39.778;2.710;2022-07-23T05:03:47;18.02;;;4.03;;
54307;SDS011;40208;39.778;2.710;2022-07-23T05:06:32;10.75;;;4.25;;
54307;SDS011;40208;39.778;2.710;2022-07-23T05:09:17;11.05;;;3.72;;
54307;SDS011;40208;39.778;2.710;2022-07-23T05:12:02;7.78;;;3.78;;
54307;SDS011;40208;39.778;2.710;2022-07-23T05:14:48;11.43;;;4.38;;
54307;SDS011;40208;39.778;2.710;2022-07-23T05:17:32;12.55;;;4.30;;
54307;SDS011;40208;39.778;2.710;2022-07-23T05:20:17;16.58;;;4.22;;
54307;SDS011;40208;39.778;2.710;2022-07-23T05:23:02;12.10;;;3.88;;
54307;SDS011;40208;39.778;2.710;2022-07-23T05:25:48;13.32;;;4.40;;
54307;SDS011;40208;39.778;2.710;2022-07-23T05:28:33;9.10;;;4.60;;
54307;SDS011;40208;39.778;2.710;2022-07-23T05:31:19;9.05;;;4.35;;
54307;SDS011;40208;39.778;2.710;2022-07-23T05:34:03;11.98;;;4.90;;
54307;SDS011;40208;39.778;2.710;2022-07-23T05:36:48;10.73;;;4.43;;
54307;SDS011;40208;39.778;2.710;2022-07-23T05:39:33;10.02;;;4.10;;
54307;SDS011;40208;39.778;2.710;2022-07-23T05:42:18;12.57;;;4.18;;
54307;SDS011;40208;39.778;2.710;2022-07-23T05:45:03;20.95;;;5.38;;
54307;SDS011;40208;39.778;2.710;2022-07-23T05:47:49;14.82;;;5.03;;
54307;SDS011;40208;39.778;2.710;2022-07-23T05:50:33;13.15;;;4.63;;
54307;SDS011;40208;39.778;2.710;2022-07-23T05:53:18;7.63;;;4.63;;
54307;SDS011;40208;39.778;2.710;2022-07-23T05:56:03;12.30;;;4.85;;
54307;SDS011;40208;39.778;2.710;2022-07-23T05:58:48;24.02;;;6.68;;
54307;SDS011;40208;39.778;2.710;2022-07-23T06:01:33;29.13;;;6.03;;
54307;SDS011;40208;39.778;2.710;2022-07-23T06:04:18;16.52;;;5.47;;
54307;SDS011;40208;39.778;2.710;2022-07-23T06:07:03;9.30;;;4.53;;
54307;SDS011;40208;39.778;2.710;2022-07-23T06:09:48;10.30;;;4.40;;
54307;SDS011;40208;39.778;2.710;2022-07-23T06:12:33;8.27;;;4.57;;
54307;SDS011;40208;39.778;2.710;2022-07-23T06:15:18;16.88;;;5.20;;
54307;SDS011;40208;39.778;2.710;2022-07-23T06:18:03;14.60;;;4.95;;
54307;SDS011;40208;39.778;2.710;2022-07-23T06:20:48;10.35;;;4.47;;
54307;SDS011;40208;39.778;2.710;2022-07-23T06:23:32;14.15;;;4.32;;
54307;SDS011;40208;39.778;2.710;2022-07-23T06:26:17;13.40;;;4.25;;
54307;SDS011;40208;39.778;2.710;2022-07-23T06:29:02;11.65;;;3.83;;
54307;SDS011;40208;39.778;2.710;2022-07-23T06:31:47;7.72;;;3.90;;
54307;SDS011;40208;39.778;2.710;2022-07-23T06:34:32;9.80;;;3.97;;
54307;SDS011;40208;39.778;2.710;2022-07-23T06:37:17;4.78;;;3.58;;
54307;SDS011;40208;39.778;2.710;2022-07-23T06:40:03;4.97;;;3.80;;
54307;SDS011;40208;39.778;2.710;2022-07-23T06:42:48;14.30;;;4.47;;
54307;SDS011;40208;39.778;2.710;2022-07-23T06:45:33;11.18;;;3.45;;
54307;SDS011;40208;39.778;2.710;2022-07-23T06:48:17;11.52;;;3.83;;
54307;SDS011;40208;39.778;2.710;2022-07-23T06:51:02;5.15;;;3.90;;
54307;SDS011;40208;39.778;2.710;2022-07-23T06:53:48;5.30;;;3.67;;
54307;SDS011;40208;39.778;2.710;2022-07-23T06:56:32;7.70;;;4.05;;
54307;SDS011;40208;39.778;2.710;2022-07-23T06:59:17;4.95;;;3.78;;
54307;SDS011;40208;39.778;2.710;2022-07-23T07:02:02;7.88;;;3.60;;
54307;SDS011;40208;39.778;2.710;2022-07-23T07:04:47;5.88;;;3.60;;
54307;SDS011;40208;39.778;2.710;2022-07-23T07:07:33;6.10;;;3.75;;
54307;SDS011;40208;39.778;2.710;2022-07-23T07:10:19;9.20;;;4.05;;
54307;SDS011;40208;39.778;2.710;2022-07-23T07:13:04;8.32;;;3.70;;
54307;SDS011;40208;39.778;2.710;2022-07-23T07:15:48;12.50;;;4.00;;
54307;SDS011;40208;39.778;2.710;2022-07-23T07:18:33;9.48;;;3.60;;
54307;SDS011;40208;39.778;2.710;2022-07-23T07:21:18;12.52;;;4.55;;
54307;SDS011;40208;39.778;2.710;2022-07-23T07:24:03;10.25;;;3.75;;
54307;SDS011;40208;39.778;2.710;2022-07-23T07:26:48;7.60;;;3.45;;
54307;SDS011;40208;39.778;2.710;2022-07-23T07:29:33;6.68;;;4.03;;
54307;SDS011;40208;39.778;2.710;2022-07-23T07:32:18;5.70;;;3.50;;
54307;SDS011;40208;39.778;2.710;2022-07-23T07:35:04;6.90;;;3.72;;
54307;SDS011;40208;39.778;2.710;2022-07-23T07:37:49;11.48;;;3.58;;
54307;SDS011;40208;39.778;2.710;2022-07-23T07:40:34;11.00;;;3.42;;
54307;SDS011;40208;39.778;2.710;2022-07-23T07:43:19;6.72;;;3.42;;
54307;SDS011;40208;39.778;2.710;2022-07-23T07:46:04;10.07;;;3.67;;
54307;SDS011;40208;39.778;2.710;2022-07-23T07:48:53;5.15;;;3.28;;
54307;SDS011;40208;39.778;2.710;2022-07-23T07:51:38;6.65;;;3.58;;
54307;SDS011;40208;39.778;2.710;2022-07-23T07:54:23;4.70;;;3.45;;
54307;SDS011;40208;39.778;2.710;2022-07-23T07:57:08;3.50;;;3.08;;
54307;SDS011;40208;39.778;2.710;2022-07-23T07:59:52;8.10;;;3.20;;
54307;SDS011;40208;39.778;2.710;2022-07-23T08:02:41;6.70;;;3.28;;
54307;SDS011;40208;39.778;2.710;2022-07-23T08:05:27;6.50;;;3.50;;
54307;SDS011;40208;39.778;2.710;2022-07-23T08:08:13;9.52;;;3.58;;
54307;SDS011;40208;39.778;2.710;2022-07-23T08:11:00;5.53;;;3.53;;
54307;SDS011;40208;39.778;2.710;2022-07-23T08:13:45;8.25;;;3.38;;
54307;SDS011;40208;39.778;2.710;2022-07-23T08:16:30;6.82;;;3.03;;
54307;SDS011;40208;39.778;2.710;2022-07-23T08:19:15;6.53;;;3.10;;
54307;SDS011;40208;39.778;2.710;2022-07-23T08:22:00;5.18;;;2.90;;
54307;SDS011;40208;39.778;2.710;2022-07-23T08:24:44;7.15;;;3.15;;
54307;SDS011;40208;39.778;2.710;2022-07-23T08:27:29;5.57;;;3.08;;
54307;SDS011;40208;39.778;2.710;2022-07-23T08:30:15;4.68;;;2.78;;
54307;SDS011;40208;39.778;2.710;2022-07-23T08:35:55;3.28;;;2.67;;
54307;SDS011;40208;39.778;2.710;2022-07-23T08:38:40;5.40;;;2.80;;
54307;SDS011;40208;39.778;2.710;2022-07-23T08:41:25;5.47;;;3.20;;
54307;SDS011;40208;39.778;2.710;2022-07-23T08:44:09;6.13;;;3.40;;
54307;SDS011;40208;39.778;2.710;2022-07-23T08:46:54;4.47;;;2.65;;
54307;SDS011;40208;39.778;2.710;2022-07-23T08:49:39;4.22;;;2.65;;
54307;SDS011;40208;39.778;2.710;2022-07-23T08:52:25;9.15;;;2.92;;
54307;SDS011;40208;39.778;2.710;2022-07-23T08:55:10;5.65;;;2.83;;
54307;SDS011;40208;39.778;2.710;2022-07-23T08:57:55;5.43;;;2.90;;
54307;SDS011;40208;39.778;2.710;2022-07-23T09:00:40;3.38;;;2.95;;
54307;SDS011;40208;39.778;2.710;2022-07-23T09:03:27;7.78;;;3.30;;
54307;SDS011;40208;39.778;2.710;2022-07-23T09:06:14;7.28;;;3.20;;
54307;SDS011;40208;39.778;2.710;2022-07-23T09:08:59;5.88;;;3.53;;
54307;SDS011;40208;39.778;2.710;2022-07-23T09:12:02;6.55;;;3.17;;
54307;SDS011;40208;39.778;2.710;2022-07-23T09:14:48;3.47;;;2.78;;
54307;SDS011;40208;39.778;2.710;2022-07-23T09:17:36;4.45;;;3.30;;
54307;SDS011;40208;39.778;2.710;2022-07-23T09:20:23;9.02;;;2.80;;
54307;SDS011;40208;39.778;2.710;2022-07-23T09:23:08;5.57;;;3.10;;
54307;SDS011;40208;39.778;2.710;2022-07-23T09:25:53;3.50;;;2.85;;
54307;SDS011;40208;39.778;2.710;2022-07-23T09:28:47;5.57;;;2.97;;
54307;SDS011;40208;39.778;2.710;2022-07-23T09:31:51;4.13;;;2.80;;
54307;SDS011;40208;39.778;2.710;2022-07-23T09:34:38;9.27;;;3.30;;
54307;SDS011;40208;39.778;2.710;2022-07-23T09:37:22;5.63;;;3.35;;
54307;SDS011;40208;39.778;2.710;2022-07-23T09:40:09;4.95;;;3.25;;
54307;SDS011;40208;39.778;2.710;2022-07-23T09:42:57;4.47;;;3.13;;
54307;SDS011;40208;39.778;2.710;2022-07-23T09:45:42;3.88;;;2.90;;
54307;SDS011;40208;39.778;2.710;2022-07-23T09:48:26;9.07;;;3.08;;
54307;SDS011;40208;39.778;2.710;2022-07-23T09:51:12;6.57;;;3.30;;
54307;SDS011;40208;39.778;2.710;2022-07-23T09:53:59;10.00;;;3.33;;
54307;SDS011;40208;39.778;2.710;2022-07-23T09:56:44;6.20;;;3.38;;
54307;SDS011;40208;39.778;2.710;2022-07-23T09:59:33;5.10;;;3.05;;
54307;SDS011;40208;39.778;2.710;2022-07-23T10:02:20;6.43;;;3.55;;
54307;SDS011;40208;39.778;2.710;2022-07-23T10:05:06;6.28;;;3.30;;
54307;SDS011;40208;39.778;2.710;2022-07-23T10:07:52;3.78;;;3.10;;
54307;SDS011;40208;39.778;2.710;2022-07-23T10:10:38;6.68;;;3.50;;
54307;SDS011;40208;39.778;2.710;2022-07-23T10:13:24;4.82;;;3.00;;
54307;SDS011;40208;39.778;2.710;2022-07-23T10:16:42;7.35;;;3.08;;
54307;SDS011;40208;39.778;2.710;2022-07-23T10:19:27;5.90;;;2.97;;
54307;SDS011;40208;39.778;2.710;2022-07-23T10:25:51;7.03;;;3.65;;
54307;SDS011;40208;39.778;2.710;2022-07-23T10:34:51;8.88;;;3.33;;
54307;SDS011;40208;39.778;2.710;2022-07-23T10:37:44;5.35;;;3.38;;
54307;SDS011;40208;39.778;2.710;2022-07-23T10:40:31;8.37;;;3.27;;
54307;SDS011;40208;39.778;2.710;2022-07-23T10:43:16;9.80;;;3.50;;
54307;SDS011;40208;39.778;2.710;2022-07-23T10:49:20;6.50;;;3.50;;
54307;SDS011;40208;39.778;2.710;2022-07-23T10:57:47;7.53;;;3.40;;
54307;SDS011;40208;39.778;2.710;2022-07-23T11:00:33;7.63;;;3.58;;
54307;SDS011;40208;39.778;2.710;2022-07-23T11:03:30;7.47;;;3.22;;
54307;SDS011;40208;39.778;2.710;2022-07-23T11:06:17;6.03;;;3.78;;
54307;SDS011;40208;39.778;2.710;2022-07-23T11:15:12;5.78;;;3.38;;
54307;SDS011;40208;39.778;2.710;2022-07-23T11:17:59;5.93;;;3.58;;
54307;SDS011;40208;39.778;2.710;2022-07-23T11:20:45;7.93;;;3.40;;
54307;SDS011;40208;39.778;2.710;2022-07-23T11:23:57;9.85;;;3.47;;
54307;SDS011;40208;39.778;2.710;2022-07-23T11:26:58;5.80;;;3.63;;
54307;SDS011;40208;39.778;2.710;2022-07-23T11:29:44;7.53;;;3.65;;
54307;SDS011;40208;39.778;2.710;2022-07-23T11:32:31;7.18;;;3.40;;
54307;SDS011;40208;39.778;2.710;2022-07-23T11:38:07;5.95;;;3.20;;
54307;SDS011;40208;39.778;2.710;2022-07-23T11:40:57;8.80;;;3.70;;
54307;SDS011;40208;39.778;2.710;2022-07-23T11:43:42;6.45;;;3.20;;
54307;SDS011;40208;39.778;2.710;2022-07-23T11:46:27;5.63;;;2.78;;
54307;SDS011;40208;39.778;2.710;2022-07-23T11:49:12;6.68;;;2.90;;
54307;SDS011;40208;39.778;2.710;2022-07-23T11:54:53;4.90;;;2.88;;
54307;SDS011;40208;39.778;2.710;2022-07-23T11:57:56;21.17;;;8.27;;
54307;SDS011;40208;39.778;2.710;2022-07-23T12:00:42;11.15;;;3.80;;
54307;SDS011;40208;39.778;2.710;2022-07-23T12:03:27;9.00;;;3.92;;
54307;SDS011;40208;39.778;2.710;2022-07-23T12:06:11;10.48;;;3.20;;
54307;SDS011;40208;39.778;2.710;2022-07-23T12:08:56;6.75;;;3.00;;
54307;SDS011;40208;39.778;2.710;2022-07-23T12:12:00;10.95;;;5.75;;
54307;SDS011;40208;39.778;2.710;2022-07-23T12:17:44;10.02;;;4.32;;
54307;SDS011;40208;39.778;2.710;2022-07-23T12:20:31;4.95;;;2.55;;
54307;SDS011;40208;39.778;2.710;2022-07-23T12:23:19;11.98;;;4.70;;
54307;SDS011;40208;39.778;2.710;2022-07-23T12:26:05;15.07;;;6.55;;
54307;SDS011;40208;39.778;2.710;2022-07-23T12:28:52;13.95;;;3.50;;
54307;SDS011;40208;39.778;2.710;2022-07-23T12:31:38;4.82;;;2.72;;
54307;SDS011;40208;39.778;2.710;2022-07-23T12:34:23;7.43;;;2.83;;
54307;SDS011;40208;39.778;2.710;2022-07-23T12:37:08;5.78;;;2.90;;
54307;SDS011;40208;39.778;2.710;2022-07-23T12:43:09;5.68;;;2.72;;
54307;SDS011;40208;39.778;2.710;2022-07-23T12:46:05;5.30;;;2.42;;
54307;SDS011;40208;39.778;2.710;2022-07-23T12:48:51;3.83;;;2.10;;
54307;SDS011;40208;39.778;2.710;2022-07-23T12:51:37;4.00;;;2.20;;
54307;SDS011;40208;39.778;2.710;2022-07-23T12:54:27;4.07;;;2.65;;
54307;SDS011;40208;39.778;2.710;2022-07-23T12:57:12;2.85;;;2.53;;
54307;SDS011;40208;39.778;2.710;2022-07-23T13:00:07;6.10;;;3.30;;
54307;SDS011;40208;39.778;2.710;2022-07-23T13:02:53;5.53;;;3.20;;
54307;SDS011;40208;39.778;2.710;2022-07-23T13:05:38;5.40;;;3.00;;
54307;SDS011;40208;39.778;2.710;2022-07-23T13:08:24;4.53;;;2.70;;
54307;SDS011;40208;39.778;2.710;2022-07-23T13:11:10;4.00;;;2.58;;
54307;SDS011;40208;39.778;2.710;2022-07-23T13:13:55;4.00;;;2.53;;
54307;SDS011;40208;39.778;2.710;2022-07-23T13:16:41;4.45;;;2.70;;
54307;SDS011;40208;39.778;2.710;2022-07-23T13:19:26;9.05;;;2.80;;
54307;SDS011;40208;39.778;2.710;2022-07-23T13:22:11;7.40;;;2.63;;
54307;SDS011;40208;39.778;2.710;2022-07-23T13:24:56;5.45;;;2.63;;
54307;SDS011;40208;39.778;2.710;2022-07-23T13:27:41;4.63;;;2.25;;
54307;SDS011;40208;39.778;2.710;2022-07-23T13:30:26;4.07;;;2.30;;
54307;SDS011;40208;39.778;2.710;2022-07-23T13:33:10;4.28;;;2.47;;
54307;SDS011;40208;39.778;2.710;2022-07-23T13:35:56;5.05;;;3.10;;
54307;SDS011;40208;39.778;2.710;2022-07-23T13:38:40;3.30;;;2.20;;
54307;SDS011;40208;39.778;2.710;2022-07-23T13:41:25;3.28;;;2.70;;
54307;SDS011;40208;39.778;2.710;2022-07-23T13:44:10;3.60;;;2.65;;
54307;SDS011;40208;39.778;2.710;2022-07-23T13:46:55;5.22;;;2.65;;
54307;SDS011;40208;39.778;2.710;2022-07-23T13:49:40;5.10;;;2.70;;
54307;SDS011;40208;39.778;2.710;2022-07-23T13:52:25;5.43;;;2.40;;
54307;SDS011;40208;39.778;2.710;2022-07-23T13:55:10;7.18;;;2.47;;
54307;SDS011;40208;39.778;2.710;2022-07-23T13:57:54;5.15;;;2.40;;
54307;SDS011;40208;39.778;2.710;2022-07-23T14:00:41;7.78;;;2.13;;
54307;SDS011;40208;39.778;2.710;2022-07-23T14:03:28;4.05;;;2.33;;
54307;SDS011;40208;39.778;2.710;2022-07-23T14:06:13;3.20;;;2.40;;
54307;SDS011;40208;39.778;2.710;2022-07-23T14:08:58;7.10;;;2.13;;
54307;SDS011;40208;39.778;2.710;2022-07-23T14:11:43;4.57;;;2.40;;
54307;SDS011;40208;39.778;2.710;2022-07-23T14:14:28;6.28;;;2.35;;
54307;SDS011;40208;39.778;2.710;2022-07-23T14:17:12;5.32;;;2.88;;
54307;SDS011;40208;39.778;2.710;2022-07-23T14:19:57;3.67;;;2.13;;
54307;SDS011;40208;39.778;2.710;2022-07-23T14:22:43;4.32;;;2.70;;
54307;SDS011;40208;39.778;2.710;2022-07-23T14:25:28;5.53;;;2.28;;
54307;SDS011;40208;39.778;2.710;2022-07-23T14:28:12;3.78;;;2.45;;
54307;SDS011;40208;39.778;2.710;2022-07-23T14:30:57;4.90;;;2.33;;
54307;SDS011;40208;39.778;2.710;2022-07-23T14:33:42;5.80;;;2.50;;
54307;SDS011;40208;39.778;2.710;2022-07-23T14:36:27;3.80;;;2.47;;
54307;SDS011;40208;39.778;2.710;2022-07-23T14:39:12;5.30;;;2.45;;
54307;SDS011;40208;39.778;2.710;2022-07-23T14:41:57;5.25;;;2.95;;
54307;SDS011;40208;39.778;2.710;2022-07-23T14:44:42;4.57;;;2.25;;
54307;SDS011;40208;39.778;2.710;2022-07-23T14:47:26;4.95;;;2.53;;
54307;SDS011;40208;39.778;2.710;2022-07-23T14:50:11;5.03;;;2.30;;
54307;SDS011;40208;39.778;2.710;2022-07-23T14:52:57;3.75;;;2.38;;
54307;SDS011;40208;39.778;2.710;2022-07-23T14:55:42;5.13;;;2.25;;
54307;SDS011;40208;39.778;2.710;2022-07-23T14:58:27;4.55;;;2.38;;
54307;SDS011;40208;39.778;2.710;2022-07-23T15:01:13;8.15;;;2.60;;
54307;SDS011;40208;39.778;2.710;2022-07-23T15:03:58;5.63;;;2.90;;
54307;SDS011;40208;39.778;2.710;2022-07-23T15:06:42;5.18;;;2.25;;
54307;SDS011;40208;39.778;2.710;2022-07-23T15:09:28;3.47;;;2.05;;
54307;SDS011;40208;39.778;2.710;2022-07-23T15:12:13;4.75;;;2.33;;
54307;SDS011;40208;39.778;2.710;2022-07-23T15:14:58;4.70;;;2.47;;
54307;SDS011;40208;39.778;2.710;2022-07-23T15:17:43;3.92;;;2.53;;
54307;SDS011;40208;39.778;2.710;2022-07-23T15:20:28;6.03;;;2.55;;
54307;SDS011;40208;39.778;2.710;2022-07-23T15:23:13;9.25;;;2.63;;
54307;SDS011;40208;39.778;2.710;2022-07-23T15:25:58;3.83;;;2.80;;
54307;SDS011;40208;39.778;2.710;2022-07-23T15:28:43;3.30;;;2.58;;
54307;SDS011;40208;39.778;2.710;2022-07-23T15:31:28;8.35;;;2.63;;
54307;SDS011;40208;39.778;2.710;2022-07-23T15:34:13;4.43;;;2.38;;
54307;SDS011;40208;39.778;2.710;2022-07-23T15:37:01;5.10;;;2.47;;
54307;SDS011;40208;39.778;2.710;2022-07-23T15:39:47;4.23;;;2.93;;
54307;SDS011;40208;39.778;2.710;2022-07-23T15:42:32;3.50;;;2.17;;
54307;SDS011;40208;39.778;2.710;2022-07-23T15:45:16;3.33;;;2.30;;
54307;SDS011;40208;39.778;2.710;2022-07-23T15:48:01;4.57;;;2.30;;
54307;SDS011;40208;39.778;2.710;2022-07-23T15:50:46;3.70;;;2.47;;
54307;SDS011;40208;39.778;2.710;2022-07-23T15:53:32;4.22;;;2.13;;
54307;SDS011;40208;39.778;2.710;2022-07-23T15:56:17;4.63;;;2.22;;
54307;SDS011;40208;39.778;2.710;2022-07-23T15:59:02;4.88;;;2.38;;
54307;SDS011;40208;39.778;2.710;2022-07-23T16:01:47;5.03;;;2.15;;
54307;SDS011;40208;39.778;2.710;2022-07-23T16:04:32;3.78;;;2.13;;
54307;SDS011;40208;39.778;2.710;2022-07-23T16:07:18;4.47;;;2.40;;
54307;SDS011;40208;39.778;2.710;2022-07-23T16:10:04;3.55;;;2.60;;
54307;SDS011;40208;39.778;2.710;2022-07-23T16:12:50;3.75;;;2.20;;
54307;SDS011;40208;39.778;2.710;2022-07-23T16:15:35;7.68;;;2.50;;
54307;SDS011;40208;39.778;2.710;2022-07-23T16:18:20;5.85;;;1.95;;
54307;SDS011;40208;39.778;2.710;2022-07-23T16:21:09;4.85;;;2.38;;
54307;SDS011;40208;39.778;2.710;2022-07-23T16:23:54;8.20;;;2.35;;
54307;SDS011;40208;39.778;2.710;2022-07-23T16:26:39;6.30;;;2.50;;
54307;SDS011;40208;39.778;2.710;2022-07-23T16:29:24;10.02;;;2.92;;
54307;SDS011;40208;39.778;2.710;2022-07-23T16:32:08;4.03;;;2.55;;
54307;SDS011;40208;39.778;2.710;2022-07-23T16:34:53;3.75;;;2.58;;
54307;SDS011;40208;39.778;2.710;2022-07-23T16:37:38;4.45;;;2.35;;
54307;SDS011;40208;39.778;2.710;2022-07-23T16:40:23;8.43;;;2.40;;
54307;SDS011;40208;39.778;2.710;2022-07-23T16:43:07;4.35;;;2.75;;
54307;SDS011;40208;39.778;2.710;2022-07-23T16:45:52;2.83;;;2.20;;
54307;SDS011;40208;39.778;2.710;2022-07-23T16:48:38;4.38;;;2.33;;
54307;SDS011;40208;39.778;2.710;2022-07-23T16:51:22;4.35;;;2.35;;
54307;SDS011;40208;39.778;2.710;2022-07-23T16:54:08;4.28;;;3.00;;
54307;SDS011;40208;39.778;2.710;2022-07-23T16:56:53;2.95;;;2.10;;
54307;SDS011;40208;39.778;2.710;2022-07-23T16:59:38;3.50;;;2.40;;
54307;SDS011;40208;39.778;2.710;2022-07-23T17:02:23;5.35;;;2.65;;
54307;SDS011;40208;39.778;2.710;2022-07-23T17:05:07;3.17;;;2.05;;
54307;SDS011;40208;39.778;2.710;2022-07-23T17:07:52;4.88;;;2.53;;
54307;SDS011;40208;39.778;2.710;2022-07-23T17:10:37;4.25;;;2.85;;
54307;SDS011;40208;39.778;2.710;2022-07-23T17:13:22;4.75;;;2.53;;
54307;SDS011;40208;39.778;2.710;2022-07-23T17:16:07;4.80;;;3.00;;